createdAt,value
2018-12-22T00:02:01.561Z,85.43
2018-12-22T00:04:30.323Z,85.66
2018-12-22T00:06:59.044Z,85.70
2018-12-22T00:09:27.793Z,84.97
2018-12-22T00:11:56.540Z,85.37
2018-12-22T00:14:25.230Z,85.41
2018-12-22T00:16:54.059Z,85.79
2018-12-22T00:19:22.759Z,85.23
2018-12-22T00:21:51.483Z,84.90
2018-12-22T00:24:20.265Z,85.37
2018-12-22T00:26:49.020Z,85.06
2018-12-22T00:29:17.685Z,84.73
2018-12-22T00:31:46.330Z,84.69
2018-12-22T00:34:15.075Z,84.11
2018-12-22T00:36:43.837Z,83.57
2018-12-22T00:39:12.619Z,84.03
2018-12-22T00:41:41.402Z,84.19
2018-12-22T00:44:10.147Z,84.37
2018-12-22T00:46:38.897Z,84.02
2018-12-22T00:49:07.693Z,84.01
2018-12-22T00:51:36.504Z,83.53
2018-12-22T00:54:05.547Z,84.09
2018-12-22T00:56:34.326Z,84.63
2018-12-22T00:59:03.040Z,84.08
2018-12-22T01:01:31.804Z,83.94
2018-12-22T01:04:00.594Z,83.89
2018-12-22T01:06:29.380Z,83.73
2018-12-22T01:08:58.582Z,84.01
2018-12-22T01:11:27.419Z,84.75
2018-12-22T01:13:56.183Z,84.89
2018-12-22T01:16:24.862Z,84.20
2018-12-22T01:18:53.606Z,83.94
2018-12-22T01:21:22.349Z,84.39
2018-12-22T01:23:51.889Z,83.76
2018-12-22T01:26:21.420Z,84.19
2018-12-22T01:28:50.168Z,83.73
2018-12-22T01:31:18.829Z,83.38
2018-12-22T01:33:47.540Z,83.32
2018-12-22T01:36:16.342Z,83.64
2018-12-22T01:38:45.110Z,83.36
2018-12-22T01:41:13.887Z,83.86
2018-12-22T01:43:42.632Z,83.55
2018-12-22T01:46:11.378Z,83.72
2018-12-22T01:48:40.086Z,83.90
2018-12-22T01:51:08.861Z,83.65
2018-12-22T01:53:37.690Z,84.33
2018-12-22T01:56:06.436Z,84.66
2018-12-22T01:58:35.188Z,84.04
2018-12-22T02:01:04.412Z,84.88
2018-12-22T02:03:33.172Z,84.32
2018-12-22T02:06:02.002Z,84.26
2018-12-22T02:08:30.763Z,84.39
2018-12-22T02:10:59.511Z,84.33
2018-12-22T02:13:28.320Z,83.79
2018-12-22T02:15:57.109Z,83.65
2018-12-22T02:18:25.887Z,83.72
2018-12-22T02:20:54.579Z,83.93
2018-12-22T02:23:23.302Z,83.56
2018-12-22T02:25:52.230Z,82.52
2018-12-22T02:28:20.964Z,82.16
2018-12-22T02:30:50.032Z,81.47
2018-12-22T02:33:18.813Z,81.63
2018-12-22T02:35:47.676Z,82.12
2018-12-22T02:38:16.439Z,82.08
2018-12-22T02:40:45.222Z,82.54
2018-12-22T02:43:14.007Z,82.08
2018-12-22T02:45:42.730Z,81.85
2018-12-22T02:48:11.533Z,81.96
2018-12-22T02:50:40.232Z,81.67
2018-12-22T02:53:09.122Z,81.77
2018-12-22T02:55:37.941Z,81.36
2018-12-22T02:58:06.926Z,81.60
2018-12-22T03:00:35.628Z,82.28
2018-12-22T03:03:04.885Z,82.84
2018-12-22T03:05:33.693Z,82.25
2018-12-22T03:08:02.422Z,82.33
2018-12-22T03:10:31.222Z,82.07
2018-12-22T03:12:59.913Z,82.14
2018-12-22T03:15:28.624Z,81.59
2018-12-22T03:17:57.352Z,81.92
2018-12-22T03:20:26.101Z,81.58
2018-12-22T03:22:54.814Z,82.49
2018-12-22T03:25:23.568Z,83.42
2018-12-22T03:27:52.258Z,83.68
2018-12-22T03:30:21.016Z,83.25
2018-12-22T03:32:49.851Z,83.27
2018-12-22T03:35:19.266Z,82.86
2018-12-22T03:37:48.015Z,83.22
2018-12-22T03:40:16.818Z,82.47
2018-12-22T03:42:45.570Z,82.50
2018-12-22T03:45:14.339Z,82.28
2018-12-22T03:47:43.133Z,82.38
2018-12-22T03:50:11.901Z,81.91
2018-12-22T03:52:40.634Z,82.67
2018-12-22T03:55:09.757Z,82.45
2018-12-22T03:57:38.466Z,82.04
2018-12-22T04:00:11.471Z,82.32
2018-12-22T04:02:40.194Z,82.23
2018-12-22T04:05:09.025Z,82.02
2018-12-22T04:07:37.807Z,82.09
2018-12-22T04:10:07.504Z,83.65
2018-12-22T04:12:36.231Z,83.17
2018-12-22T04:15:05.957Z,82.90
2018-12-22T04:17:34.821Z,82.64
2018-12-22T04:20:04.871Z,82.91
2018-12-22T04:22:33.850Z,82.98
2018-12-22T04:25:02.591Z,82.75
2018-12-22T04:27:31.312Z,82.29
2018-12-22T04:30:00.020Z,82.04
2018-12-22T04:32:28.744Z,82.58
2018-12-22T04:34:57.448Z,82.59
2018-12-22T04:37:26.272Z,81.78
2018-12-22T04:39:54.999Z,82.17
2018-12-22T04:42:23.750Z,81.73
2018-12-22T04:44:52.444Z,81.84
2018-12-22T04:47:21.306Z,81.13
2018-12-22T04:49:50.077Z,81.26
2018-12-22T04:52:18.826Z,81.01
2018-12-22T04:54:47.497Z,80.43
2018-12-22T04:57:16.282Z,81.04
2018-12-22T04:59:45.004Z,81.27
2018-12-22T05:02:13.726Z,80.90
2018-12-22T05:04:42.443Z,81.19
2018-12-22T05:07:11.159Z,81.35
2018-12-22T05:09:39.845Z,80.96
2018-12-22T05:12:08.663Z,80.98
2018-12-22T05:14:37.372Z,81.27
2018-12-22T05:17:06.188Z,81.08
2018-12-22T05:19:34.972Z,80.84
2018-12-22T05:22:03.686Z,80.93
2018-12-22T05:24:32.477Z,81.02
2018-12-22T05:27:01.246Z,81.42
2018-12-22T05:29:29.994Z,81.40
2018-12-22T05:31:58.706Z,81.36
2018-12-22T05:34:27.383Z,80.93
2018-12-22T05:36:56.169Z,80.73
2018-12-22T05:39:24.939Z,81.45
2018-12-22T05:41:53.702Z,80.90
2018-12-22T05:44:22.594Z,81.35
2018-12-22T05:46:51.333Z,80.75
2018-12-22T05:49:23.300Z,81.78
2018-12-22T05:51:51.993Z,82.03
2018-12-22T05:54:20.810Z,82.04
2018-12-22T05:56:49.568Z,82.31
2018-12-22T05:59:18.300Z,81.95
2018-12-22T06:01:47.001Z,82.18
2018-12-22T06:04:15.704Z,82.03
2018-12-22T06:06:44.461Z,82.13
2018-12-22T06:09:13.219Z,82.02
2018-12-22T06:11:41.957Z,82.51
2018-12-22T06:14:10.706Z,82.17
2018-12-22T06:16:39.478Z,82.34
2018-12-22T06:19:08.435Z,81.92
2018-12-22T06:21:37.259Z,82.01
2018-12-22T06:24:05.954Z,81.48
2018-12-22T06:26:34.681Z,81.69
2018-12-22T06:29:03.472Z,81.00
2018-12-22T06:31:32.202Z,81.65
2018-12-22T06:34:00.870Z,81.63
2018-12-22T06:36:29.692Z,81.11
2018-12-22T06:38:58.468Z,81.17
2018-12-22T06:41:27.287Z,80.85
2018-12-22T06:43:55.980Z,79.20
2018-12-22T06:46:24.680Z,79.94
2018-12-22T06:48:53.386Z,79.91
2018-12-22T06:51:22.158Z,79.79
2018-12-22T06:53:50.899Z,79.41
2018-12-22T06:56:19.761Z,80.18
2018-12-22T06:58:48.578Z,80.77
2018-12-22T07:01:17.290Z,81.80
2018-12-22T07:03:46.294Z,81.57
2018-12-22T07:06:15.054Z,81.71
2018-12-22T07:08:43.723Z,81.97
2018-12-22T07:11:12.490Z,82.22
2018-12-22T07:13:41.179Z,81.77
2018-12-22T07:16:10.105Z,82.07
2018-12-22T07:18:38.800Z,82.05
2018-12-22T07:21:07.572Z,82.38
2018-12-22T07:23:36.462Z,81.77
2018-12-22T07:26:05.604Z,81.28
2018-12-22T07:28:34.528Z,80.08
2018-12-22T07:31:03.345Z,80.02
2018-12-22T07:33:32.745Z,79.65
2018-12-22T07:36:01.439Z,79.12
2018-12-22T07:38:30.241Z,79.15
2018-12-22T07:40:59.039Z,78.33
2018-12-22T07:43:27.865Z,78.03
2018-12-22T07:45:56.607Z,77.22
2018-12-22T07:48:25.349Z,77.22
2018-12-22T07:50:54.078Z,77.23
2018-12-22T07:53:22.828Z,76.96
2018-12-22T07:55:51.755Z,77.20
2018-12-22T07:58:20.609Z,77.51
2018-12-22T08:00:49.436Z,77.34
2018-12-22T08:03:18.277Z,76.96
2018-12-22T08:05:47.300Z,76.81
2018-12-22T08:08:16.098Z,76.66
2018-12-22T08:10:44.778Z,76.41
2018-12-22T08:13:13.575Z,75.98
2018-12-22T08:15:43.143Z,75.59
2018-12-22T08:18:12.692Z,75.99
2018-12-22T08:20:41.467Z,75.50
2018-12-22T08:23:10.301Z,75.02
2018-12-22T08:25:39.071Z,76.04
2018-12-22T08:28:07.800Z,75.41
2018-12-22T08:30:43.510Z,75.63
2018-12-22T08:33:07.414Z,74.93
2018-12-22T08:35:36.158Z,74.82
2018-12-22T08:38:05.000Z,74.42
2018-12-22T08:40:33.778Z,74.21
2018-12-22T08:43:02.677Z,73.80
2018-12-22T08:45:31.428Z,74.23
2018-12-22T08:50:38.256Z,74.15
2018-12-22T08:53:07.420Z,73.90
2018-12-22T08:55:36.133Z,73.89
2018-12-22T08:58:04.890Z,73.70
2018-12-22T09:00:33.664Z,73.42
2018-12-22T09:03:02.451Z,73.44
2018-12-22T09:05:31.194Z,73.34
2018-12-22T09:07:59.919Z,73.29
2018-12-22T09:10:29.089Z,72.25
2018-12-22T09:12:57.924Z,72.32
2018-12-22T09:15:26.665Z,72.01
2018-12-22T09:17:55.565Z,71.54
2018-12-22T09:20:24.408Z,71.35
2018-12-22T09:22:53.254Z,71.42
2018-12-22T09:25:22.085Z,71.46
2018-12-22T09:27:50.867Z,71.48
2018-12-22T09:30:19.786Z,70.90
2018-12-22T09:32:48.440Z,71.02
2018-12-22T09:35:17.160Z,70.58
2018-12-22T09:37:46.424Z,70.45
2018-12-22T09:40:15.166Z,70.69
2018-12-22T09:42:43.881Z,70.78
2018-12-22T09:45:12.639Z,70.17
2018-12-22T09:47:41.380Z,71.06
2018-12-22T09:50:13.195Z,70.31
2018-12-22T09:52:42.217Z,70.57
2018-12-22T09:55:10.939Z,69.40
2018-12-22T09:57:39.699Z,69.52
2018-12-22T10:00:13.221Z,69.39
2018-12-22T10:02:42.350Z,68.54
2018-12-22T10:05:11.061Z,68.99
2018-12-22T10:07:39.854Z,68.65
2018-12-22T10:10:14.408Z,68.38
2018-12-22T10:12:43.135Z,67.56
2018-12-22T10:15:11.916Z,67.57
2018-12-22T10:17:40.865Z,67.24
2018-12-22T10:20:09.909Z,67.43
2018-12-22T10:22:38.644Z,67.27
2018-12-22T10:25:10.355Z,66.54
2018-12-22T10:27:39.128Z,67.00
2018-12-22T10:30:15.683Z,66.49
2018-12-22T10:32:44.482Z,66.72
2018-12-22T10:35:23.557Z,66.13
2018-12-22T10:37:52.324Z,65.65
2018-12-22T10:40:21.165Z,66.01
2018-12-22T10:42:49.965Z,65.85
2018-12-22T10:45:18.687Z,65.85
2018-12-22T10:47:47.446Z,66.16
2018-12-22T10:50:16.254Z,65.55
2018-12-22T10:52:44.997Z,65.25
2018-12-22T10:55:13.696Z,65.39
2018-12-22T10:57:42.471Z,65.46
2018-12-22T11:00:14.188Z,65.25
2018-12-22T11:02:43.002Z,65.26
2018-12-22T11:05:13.367Z,66.08
2018-12-22T11:07:43.202Z,65.37
2018-12-22T11:10:20.441Z,65.28
2018-12-22T11:12:49.184Z,64.79
2018-12-22T11:15:17.945Z,64.76
2018-12-22T11:17:47.145Z,65.00
2018-12-22T11:20:16.335Z,65.43
2018-12-22T11:22:45.050Z,65.12
2018-12-22T11:25:16.768Z,65.33
2018-12-22T11:27:46.004Z,66.03
2018-12-22T11:30:19.712Z,66.15
2018-12-22T11:32:48.562Z,66.21
2018-12-22T11:35:17.428Z,65.93
2018-12-22T11:37:46.153Z,66.47
2018-12-22T11:40:14.873Z,66.33
2018-12-22T11:42:47.669Z,66.07
2018-12-22T11:45:14.388Z,66.00
2018-12-22T11:47:57.089Z,65.89
2018-12-22T11:50:27.317Z,65.93
2018-12-22T11:52:56.218Z,65.78
2018-12-22T11:55:24.987Z,65.17
2018-12-22T11:57:54.042Z,66.02
2018-12-22T12:00:22.862Z,65.66
2018-12-22T12:02:51.661Z,66.11
2018-12-22T12:05:20.364Z,65.58
2018-12-22T12:07:49.140Z,65.36
2018-12-22T12:10:17.972Z,64.93
2018-12-22T12:12:46.844Z,65.23
2018-12-22T12:15:19.451Z,64.51
2018-12-22T12:18:30.479Z,64.95
2018-12-22T12:20:59.236Z,64.07
2018-12-22T12:23:28.132Z,65.20
2018-12-22T12:25:57.033Z,65.18
2018-12-22T12:28:26.612Z,64.98
2018-12-22T12:31:24.501Z,65.13
2018-12-22T12:34:23.436Z,64.66
2018-12-22T12:37:23.208Z,65.28
2018-12-22T12:43:29.973Z,65.61
2018-12-22T12:46:28.788Z,65.57
2018-12-22T12:49:27.493Z,65.34
2018-12-22T12:52:29.440Z,65.79
2018-12-22T12:55:29.141Z,65.25
2018-12-22T12:58:28.063Z,64.98
2018-12-22T13:01:27.083Z,65.37
2018-12-22T13:04:26.945Z,65.42
2018-12-22T13:07:25.701Z,65.45
2018-12-22T13:10:26.066Z,66.21
2018-12-22T13:13:32.847Z,65.67
2018-12-22T13:16:31.593Z,65.78
2018-12-22T13:19:30.063Z,65.98
2018-12-22T13:22:29.738Z,65.77
2018-12-22T13:25:29.636Z,65.33
2018-12-22T13:28:29.065Z,65.85
2018-12-22T13:31:29.954Z,65.31
2018-12-22T13:34:28.799Z,65.80
2018-12-22T13:37:26.736Z,65.45
2018-12-22T13:40:26.275Z,65.38
2018-12-22T13:43:25.025Z,65.18
2018-12-22T13:46:23.956Z,65.30
2018-12-22T13:49:22.077Z,65.43
2018-12-22T13:52:22.652Z,65.45
2018-12-22T13:55:23.372Z,65.70
2018-12-22T13:58:21.280Z,65.95
2018-12-22T14:01:24.160Z,66.52
2018-12-22T14:04:23.992Z,67.09
2018-12-22T14:06:52.722Z,67.52
2018-12-22T14:09:21.438Z,67.58
2018-12-22T14:11:50.235Z,67.61
2018-12-22T14:14:21.886Z,67.85
2018-12-22T14:16:54.667Z,68.33
2018-12-22T14:19:23.604Z,68.45
2018-12-22T14:21:52.640Z,68.71
2018-12-22T14:24:42.047Z,68.87
2018-12-22T14:27:11.516Z,69.08
2018-12-22T14:29:40.203Z,69.61
2018-12-22T14:32:08.949Z,69.52
2018-12-22T14:34:56.073Z,69.39
2018-12-22T14:37:24.830Z,69.86
2018-12-22T14:39:53.500Z,70.16
2018-12-22T14:42:22.353Z,70.30
2018-12-22T14:44:51.278Z,70.09
2018-12-22T14:47:20.172Z,70.32
2018-12-22T14:49:48.908Z,70.65
2018-12-22T14:52:17.649Z,70.71
2018-12-22T14:54:46.593Z,70.88
2018-12-22T14:57:15.660Z,71.17
2018-12-22T14:59:45.742Z,71.15
2018-12-22T15:02:14.527Z,71.82
2018-12-22T15:04:43.276Z,72.08
2018-12-22T15:07:12.044Z,72.08
2018-12-22T15:09:40.745Z,72.45
2018-12-22T15:12:09.551Z,72.15
2018-12-22T15:14:38.250Z,72.65
2018-12-22T15:17:07.604Z,72.73
2018-12-22T15:19:38.354Z,73.38
2018-12-22T15:22:07.103Z,72.52
2018-12-22T15:24:36.467Z,73.55
2018-12-22T15:27:05.200Z,73.12
2018-12-22T15:29:33.896Z,73.42
2018-12-22T15:32:02.585Z,73.46
2018-12-22T15:34:31.293Z,73.46
2018-12-22T15:37:00.066Z,73.81
2018-12-22T15:39:28.759Z,73.58
2018-12-22T15:41:57.510Z,73.65
2018-12-22T15:44:26.249Z,73.84
2018-12-22T15:46:55.000Z,74.26
2018-12-22T15:49:24.215Z,74.53
2018-12-22T15:51:53.018Z,74.28
2018-12-22T15:54:21.774Z,74.11
2018-12-22T15:56:50.470Z,74.54
2018-12-22T15:59:19.673Z,74.15
2018-12-22T16:01:48.375Z,74.59
2018-12-22T16:04:17.079Z,74.29
2018-12-22T16:06:45.876Z,74.08
2018-12-22T16:09:14.607Z,74.60
2018-12-22T16:11:43.326Z,74.57
2018-12-22T16:14:12.076Z,74.83
2018-12-22T16:16:40.789Z,74.51
2018-12-22T16:19:09.734Z,74.62
2018-12-22T16:21:38.501Z,75.01
2018-12-22T16:24:07.284Z,74.93
2018-12-22T16:26:36.122Z,75.26
2018-12-22T16:29:11.564Z,74.83
2018-12-22T16:31:40.256Z,75.23
2018-12-22T16:34:09.022Z,75.02
2018-12-22T16:36:38.349Z,75.42
2018-12-22T16:39:08.807Z,74.65
2018-12-22T16:41:37.750Z,75.02
2018-12-22T16:44:09.655Z,75.38
2018-12-22T16:46:38.420Z,75.08
2018-12-22T16:49:07.197Z,75.64
2018-12-22T16:51:35.969Z,75.67
2018-12-22T16:54:05.228Z,76.13
2018-12-22T16:56:33.979Z,76.13
2018-12-22T16:59:02.987Z,76.26
2018-12-22T17:01:41.574Z,76.33
2018-12-22T17:04:10.381Z,76.87
2018-12-22T17:06:40.631Z,76.71
2018-12-22T17:09:11.050Z,76.32
2018-12-22T17:11:40.100Z,77.20
2018-12-22T17:14:08.892Z,77.02
2018-12-22T17:16:38.010Z,77.52
2018-12-22T17:19:07.135Z,76.54
2018-12-22T17:21:43.012Z,76.64
2018-12-22T17:24:16.603Z,76.47
2018-12-22T17:26:46.189Z,76.55
2018-12-22T17:29:14.971Z,77.06
2018-12-22T17:31:44.095Z,76.87
2018-12-22T17:34:13.193Z,76.85
2018-12-22T17:36:41.975Z,76.86
2018-12-22T17:39:12.787Z,77.60
2018-12-22T17:41:42.484Z,77.23
2018-12-22T17:44:11.249Z,77.55
2018-12-22T17:46:40.068Z,77.18
2018-12-22T17:49:08.795Z,77.18
2018-12-22T17:51:37.588Z,76.80
2018-12-22T17:54:06.377Z,76.81
2018-12-22T17:56:35.147Z,76.90
2018-12-22T17:59:03.922Z,77.77
2018-12-22T18:01:33.100Z,77.66
2018-12-22T18:04:01.864Z,77.35
2018-12-22T18:06:30.579Z,77.15
2018-12-22T18:08:59.995Z,77.47
2018-12-22T18:11:28.747Z,77.01
2018-12-22T18:13:57.464Z,77.65
2018-12-22T18:16:26.290Z,77.74
2018-12-22T18:18:55.018Z,77.31
2018-12-22T18:21:23.963Z,77.39
2018-12-22T18:23:53.767Z,77.29
2018-12-22T18:26:22.572Z,77.65
2018-12-22T18:28:51.352Z,78.09
2018-12-22T18:31:20.121Z,77.65
2018-12-22T18:33:48.950Z,77.71
2018-12-22T18:36:17.801Z,78.19
2018-12-22T18:38:51.747Z,78.59
2018-12-22T18:41:20.586Z,78.67
2018-12-22T18:43:49.353Z,78.60
2018-12-22T18:46:18.018Z,78.91
2018-12-22T18:48:46.745Z,78.06
2018-12-22T18:51:15.461Z,78.25
2018-12-22T18:53:44.203Z,78.47
2018-12-22T18:56:13.020Z,78.26
2018-12-22T18:58:41.675Z,78.31
2018-12-22T19:01:10.395Z,78.13
2018-12-22T19:03:44.755Z,78.28
2018-12-22T19:06:09.886Z,78.37
2018-12-22T19:08:38.744Z,77.80
2018-12-22T19:11:10.339Z,78.03
2018-12-22T19:13:39.107Z,78.25
2018-12-22T19:16:07.845Z,78.30
2018-12-22T19:18:36.752Z,78.31
2018-12-22T19:21:05.504Z,77.84
2018-12-22T19:23:34.326Z,78.37
2018-12-22T19:26:03.090Z,77.83
2018-12-22T19:28:31.859Z,78.27
2018-12-22T19:31:00.588Z,78.27
2018-12-22T19:33:29.351Z,77.82
2018-12-22T19:35:58.113Z,77.81
2018-12-22T19:38:26.808Z,78.28
2018-12-22T19:40:55.522Z,78.24
2018-12-22T19:43:24.319Z,78.36
2018-12-22T19:45:53.075Z,78.02
2018-12-22T19:48:21.861Z,77.98
2018-12-22T19:50:50.652Z,77.59
2018-12-22T19:53:19.868Z,76.89
2018-12-22T19:55:48.649Z,77.23
2018-12-22T19:58:17.465Z,76.62
2018-12-22T20:00:46.159Z,76.48
2018-12-22T20:03:14.965Z,76.86
2018-12-22T20:05:43.800Z,77.81
2018-12-22T20:08:12.622Z,77.71
2018-12-22T20:10:41.314Z,77.23
2018-12-22T20:13:10.149Z,77.46
2018-12-22T20:15:38.905Z,77.48
2018-12-22T20:18:07.641Z,77.62
2018-12-22T20:20:36.353Z,77.46
2018-12-22T20:23:05.218Z,77.51
2018-12-22T20:25:34.032Z,77.75
2018-12-22T20:28:02.832Z,77.46
2018-12-22T20:30:31.640Z,77.58
2018-12-22T20:33:00.431Z,77.53
2018-12-22T20:35:29.279Z,76.86
2018-12-22T20:37:58.165Z,77.16
2018-12-22T20:40:26.843Z,77.14
2018-12-22T20:42:55.645Z,76.79
2018-12-22T20:45:24.414Z,76.71
2018-12-22T20:47:53.505Z,76.75
2018-12-22T20:50:22.416Z,77.12
2018-12-22T20:52:51.190Z,76.99
2018-12-22T20:55:21.141Z,76.79
2018-12-22T20:57:50.623Z,76.64
2018-12-22T21:00:20.148Z,76.31
2018-12-22T21:02:49.072Z,76.08
2018-12-22T21:05:19.023Z,76.40
2018-12-22T21:07:48.498Z,76.35
2018-12-22T21:10:17.675Z,76.34
2018-12-22T21:12:46.488Z,76.19
2018-12-22T21:15:15.972Z,76.00
2018-12-22T21:17:44.983Z,75.73
2018-12-22T21:20:13.688Z,75.65
2018-12-22T21:22:42.400Z,76.08
2018-12-22T21:25:11.190Z,75.69
2018-12-22T21:27:39.931Z,75.71
2018-12-22T21:30:09.448Z,75.61
2018-12-22T21:32:38.271Z,75.68
2018-12-22T21:35:07.087Z,75.88
2018-12-22T21:37:35.869Z,76.12
2018-12-22T21:40:06.086Z,75.90
2018-12-22T21:42:39.907Z,76.03
2018-12-22T21:45:08.733Z,76.55
2018-12-22T21:47:37.456Z,76.54
2018-12-22T21:50:06.716Z,76.81
2018-12-22T21:52:35.449Z,76.55
2018-12-22T21:55:04.149Z,76.26
2018-12-22T21:57:32.902Z,76.72
2018-12-22T22:00:01.703Z,76.42
2018-12-22T22:02:30.424Z,76.56
2018-12-22T22:04:59.266Z,75.91
2018-12-22T22:07:28.004Z,75.83
2018-12-22T22:09:57.555Z,75.99
2018-12-22T22:12:26.252Z,75.60
2018-12-22T22:14:54.964Z,75.73
2018-12-22T22:17:23.844Z,75.02
2018-12-22T22:19:52.669Z,74.58
2018-12-22T22:22:21.351Z,75.27
2018-12-22T22:24:50.118Z,75.26
2018-12-22T22:27:18.931Z,75.37
2018-12-22T22:29:47.748Z,75.55
2018-12-22T22:32:16.618Z,75.19
2018-12-22T22:34:45.635Z,75.52
2018-12-22T22:37:14.950Z,75.17
2018-12-22T22:39:43.638Z,75.44
2018-12-22T22:42:12.350Z,75.97
2018-12-22T22:44:41.018Z,76.62
2018-12-22T22:47:09.934Z,77.40
2018-12-22T22:49:38.660Z,77.44
2018-12-22T22:52:09.654Z,77.48
2018-12-22T22:54:38.618Z,77.41
2018-12-22T22:57:07.465Z,77.14
2018-12-22T22:59:36.275Z,77.17
2018-12-22T23:02:04.948Z,76.96
2018-12-22T23:04:33.735Z,76.65
2018-12-22T23:07:02.704Z,77.06
2018-12-22T23:09:34.479Z,76.99
2018-12-22T23:12:03.294Z,77.02
2018-12-22T23:14:32.040Z,77.05
2018-12-22T23:17:00.768Z,76.90
2018-12-22T23:19:29.506Z,76.77
2018-12-22T23:21:58.811Z,76.99
2018-12-22T23:24:27.632Z,75.90
2018-12-22T23:26:57.853Z,75.71
2018-12-22T23:29:26.594Z,75.84
2018-12-22T23:31:55.456Z,75.47
2018-12-22T23:34:28.455Z,75.86
2018-12-22T23:36:57.179Z,75.76
2018-12-22T23:39:25.872Z,75.83
2018-12-22T23:41:56.767Z,76.14
2018-12-22T23:44:25.974Z,76.00
2018-12-22T23:46:54.798Z,76.42
2018-12-22T23:49:23.693Z,76.00
2018-12-22T23:51:54.440Z,76.07
2018-12-22T23:54:23.124Z,75.44
2018-12-22T23:56:51.881Z,75.65
2018-12-22T23:59:20.914Z,75.72
